Time;durP1;ratioP1;P1;durP2;ratioP2;P2;SDS_P1;SDS_P2;PMS_P1;PMS_P2;Temp;Humidity;BMP_temperature;BMP_pressure;BME280_temperature;BME280_humidity;BME280_pressure;Samples;Min_cycle;Max_cycle;Signal;HPM_P1;HPM_P2
2023/09/12 00:02:41;;;;;;;18.50;13.10;;;;;;;24.19;100.00;98821.00;5084891;28;20042;-82
2023/09/12 00:05:25;;;;;;;14.88;11.95;;;;;;;24.13;100.00;98814.13;5080525;28;20143;-82
2023/09/12 00:08:09;;;;;;;17.58;14.20;;;;;;;24.35;100.00;98810.03;5080801;28;20169;-83
2023/09/12 00:11:03;;;;;;;18.67;14.48;;;;;;;23.78;100.00;98814.28;5086108;28;20051;-83
2023/09/12 00:13:47;;;;;;;17.83;14.93;;;;;;;23.73;100.00;98817.03;5085684;28;20070;-83
2023/09/12 00:16:31;;;;;;;31.65;16.52;;;;;;;23.62;100.00;98807.53;5085878;28;20094;-81
2023/09/12 00:19:15;;;;;;;22.45;16.85;;;;;;;23.63;100.00;98807.22;5101435;28;20093;-82
2023/09/12 00:21:59;;;;;;;22.92;16.83;;;;;;;23.60;100.00;98817.75;5086260;28;20590;-83
2023/09/12 00:24:43;;;;;;;22.98;16.70;;;;;;;23.53;100.00;98818.88;5097394;28;20119;-82
2023/09/12 00:27:27;;;;;;;21.38;15.85;;;;;;;23.50;100.00;98815.97;5083990;28;20038;-84
2023/09/12 00:30:14;;;;;;;22.35;17.13;;;;;;;23.42;100.00;98817.41;5101451;28;20038;-82
2023/09/12 00:32:58;;;;;;;24.55;16.30;;;;;;;23.80;100.00;98811.31;5082260;28;20477;-82
2023/09/12 00:35:43;;;;;;;22.42;16.17;;;;;;;23.57;100.00;98815.59;5088311;28;20119;-83
2023/09/12 00:38:27;;;;;;;22.40;16.58;;;;;;;23.61;100.00;98813.97;5084143;28;20084;-82
2023/09/12 00:41:11;;;;;;;20.83;15.20;;;;;;;23.51;100.00;98809.53;5088315;28;20068;-82
2023/09/12 00:43:56;;;;;;;22.20;15.50;;;;;;;23.45;100.00;98814.16;5080262;28;20036;-83
2023/09/12 00:46:40;;;;;;;21.13;15.75;;;;;;;23.37;100.00;98806.72;5081583;28;20126;-83
2023/09/12 00:49:26;;;;;;;18.88;15.10;;;;;;;23.30;100.00;98806.28;5088764;28;20126;-82
2023/09/12 00:52:12;;;;;;;19.73;16.05;;;;;;;23.30;100.00;98796.38;5102914;28;20405;-82
2023/09/12 00:54:57;;;;;;;23.67;14.95;;;;;;;23.30;100.00;98808.97;5090139;28;20070;-83
2023/09/12 00:57:42;;;;;;;20.65;15.77;;;;;;;23.30;100.00;98807.09;5083197;28;20062;-83
2023/09/12 01:00:26;;;;;;;19.30;15.30;;;;;;;23.33;100.00;98797.69;5085918;28;20082;-83
2023/09/12 01:03:11;;;;;;;20.95;15.80;;;;;;;23.31;100.00;98805.19;5096760;28;20033;-83
2023/09/12 01:05:56;;;;;;;20.52;15.43;;;;;;;23.24;100.00;98798.28;5084493;28;20546;-82
2023/09/12 01:08:41;;;;;;;18.92;14.70;;;;;;;23.26;100.00;98798.00;5088803;28;20043;-84
2023/09/12 01:11:26;;;;;;;16.13;12.75;;;;;;;23.13;100.00;98796.00;5099928;28;20095;-82
2023/09/12 01:14:10;;;;;;;15.02;11.63;;;;;;;23.10;100.00;98806.19;5103958;28;20035;-83
2023/09/12 01:16:55;;;;;;;15.30;10.50;;;;;;;22.63;100.00;98808.50;5081405;28;20046;-83
2023/09/12 01:19:39;;;;;;;13.38;9.57;;;;;;;22.77;100.00;98802.47;5086769;28;20062;-83
2023/09/12 01:22:42;;;;;;;10.25;8.60;;;;;;;22.87;100.00;98812.28;5077918;28;20508;-83
2023/09/12 01:25:43;;;;;;;15.82;9.23;;;;;;;22.77;100.00;98802.47;5085891;28;20073;-83
2023/09/12 01:28:31;;;;;;;10.50;8.52;;;;;;;22.71;100.00;98803.63;5082890;28;20097;-81
2023/09/12 01:31:16;;;;;;;16.55;10.15;;;;;;;22.52;100.00;98798.94;5100634;28;20050;-82
2023/09/12 01:34:10;;;;;;;15.30;11.02;;;;;;;22.83;100.00;98804.06;5086425;28;20089;-81
2023/09/12 01:36:54;;;;;;;13.77;10.77;;;;;;;22.57;100.00;98806.94;5082029;28;20054;-81
2023/09/12 01:39:38;;;;;;;14.60;11.65;;;;;;;22.57;100.00;98806.94;5084107;28;20575;-81
2023/09/12 01:42:22;;;;;;;15.77;10.95;;;;;;;22.71;100.00;98798.25;5097636;28;20038;-82
2023/09/12 01:45:10;;;;;;;16.98;10.80;;;;;;;22.68;100.00;98800.41;5105238;28;20519;-82
2023/09/12 01:47:55;;;;;;;18.27;11.60;;;;;;;22.35;100.00;98807.34;5094069;28;20038;-82
2023/09/12 01:50:39;;;;;;;13.35;10.70;;;;;;;22.63;100.00;98800.47;5108038;28;20034;-81
2023/09/12 01:53:23;;;;;;;13.25;10.50;;;;;;;22.58;100.00;98811.19;5094065;28;20038;-82
2023/09/12 01:56:07;;;;;;;13.88;9.70;;;;;;;22.55;100.00;98806.41;5091163;28;20047;-82
2023/09/12 01:58:51;;;;;;;12.07;9.35;;;;;;;22.61;100.00;98805.31;5091069;28;20043;-82
2023/09/12 02:01:35;;;;;;;11.32;9.35;;;;;;;22.86;100.00;98803.47;5089493;28;20034;-82
2023/09/12 02:04:19;;;;;;;12.10;9.95;;;;;;;22.79;100.00;98816.38;5086900;28;20528;-82
2023/09/12 02:07:03;;;;;;;11.85;9.45;;;;;;;22.82;100.00;98805.13;5086198;28;20034;-81
2023/09/12 02:09:48;;;;;;;11.43;9.02;;;;;;;22.71;100.00;98814.31;5086588;28;20046;-82
2023/09/12 02:12:32;;;;;;;107.65;12.82;;;;;;;22.58;100.00;98810.41;5091657;28;20039;-84
2023/09/12 02:15:17;;;;;;;11.38;8.52;;;;;;;22.66;100.00;98817.81;5089318;28;20056;-83
2023/09/12 02:18:01;;;;;;;9.82;7.32;;;;;;;22.74;100.00;98816.41;5090783;28;20059;-81
2023/09/12 02:20:46;;;;;;;8.07;6.90;;;;;;;22.71;100.00;98815.13;5093913;28;20053;-83
2023/09/12 02:23:30;;;;;;;6.75;6.05;;;;;;;22.62;100.00;98811.44;5099743;28;20101;-83
2023/09/12 02:26:14;;;;;;;5.35;4.85;;;;;;;22.52;100.00;98802.44;5106722;28;20070;-82
2023/09/12 02:28:57;;;;;;;6.15;5.18;;;;;;;22.47;100.00;98799.78;5094168;28;20124;-84
2023/09/12 02:31:41;;;;;;;6.70;5.68;;;;;;;22.55;100.00;98798.38;5089884;28;20507;-84
2023/09/12 02:34:26;;;;;;;6.45;5.35;;;;;;;22.41;100.00;98792.84;5107537;28;20047;-84
2023/09/12 02:37:10;;;;;;;6.35;5.57;;;;;;;22.52;100.00;98801.63;5086698;28;20139;-84
2023/09/12 02:39:54;;;;;;;7.13;5.72;;;;;;;22.29;100.00;98803.09;5104180;28;20523;-82
2023/09/12 02:42:38;;;;;;;7.88;5.25;;;;;;;22.46;100.00;98792.03;5107216;28;20084;-83
2023/09/12 02:45:22;;;;;;;6.57;5.57;;;;;;;22.00;100.00;98801.94;5091638;28;20034;-83
2023/09/12 02:48:06;;;;;;;8.95;5.10;;;;;;;22.47;100.00;98804.34;5091865;28;20145;-82
2023/09/12 02:50:50;;;;;;;7.13;5.78;;;;;;;22.29;100.00;98808.44;5095329;28;20042;-83
2023/09/12 02:53:34;;;;;;;5.85;4.85;;;;;;;22.35;100.00;98804.66;5086947;28;20077;-83
2023/09/12 02:56:18;;;;;;;5.90;4.80;;;;;;;22.39;100.00;98801.13;5088308;28;20043;-82
2023/09/12 02:59:02;;;;;;;9.30;5.45;;;;;;;22.38;100.00;98790.75;5090919;28;20054;-83
2023/09/12 03:01:46;;;;;;;6.78;4.78;;;;;;;21.99;100.00;98797.66;5082331;28;20077;-83
2023/09/12 03:04:30;;;;;;;6.53;3.88;;;;;;;22.01;100.00;98797.41;5089341;28;20054;-82
2023/09/12 03:07:14;;;;;;;5.85;4.75;;;;;;;22.02;100.00;98794.47;5082654;28;20093;-81
2023/09/12 03:09:58;;;;;;;9.18;4.60;;;;;;;22.08;100.00;98796.03;5081220;28;20088;-82
2023/09/12 03:12:42;;;;;;;7.20;4.60;;;;;;;21.71;100.00;98793.78;5086131;28;20034;-83
2023/09/12 03:15:26;;;;;;;13.70;4.72;;;;;;;21.22;100.00;98798.75;5081597;28;20070;-82
2023/09/12 03:18:10;;;;;;;7.20;5.22;;;;;;;21.53;100.00;98794.13;5086930;28;20574;-82
2023/09/12 03:20:55;;;;;;;7.55;4.82;;;;;;;21.25;100.00;98799.03;5103136;28;20046;-82
2023/09/12 03:23:38;;;;;;;6.60;4.85;;;;;;;21.99;100.00;98799.56;5086924;28;20097;-83
2023/09/12 03:26:22;;;;;;;9.77;5.78;;;;;;;22.15;100.00;98805.59;5101683;28;20089;-83
2023/09/12 03:29:06;;;;;;;8.27;5.82;;;;;;;21.85;100.00;98802.81;5101953;28;20333;-84
2023/09/12 03:31:50;;;;;;;7.55;5.57;;;;;;;21.67;100.00;98804.25;5102796;28;20051;-82
2023/09/12 03:34:35;;;;;;;10.23;5.45;;;;;;;21.33;100.00;98802.19;5087347;28;20050;-82
2023/09/12 03:37:19;;;;;;;8.02;4.55;;;;;;;21.62;100.00;98804.25;5087165;28;20108;-82
2023/09/12 03:40:04;;;;;;;8.85;4.72;;;;;;;21.38;100.00;98807.50;5083596;28;20396;-82
2023/09/12 03:42:48;;;;;;;4.88;4.32;;;;;;;21.45;100.00;98809.91;5089624;28;20137;-82
2023/09/12 03:45:32;;;;;;;5.35;4.25;;;;;;;21.39;100.00;98809.09;5085749;28;20047;-84
2023/09/12 03:48:16;;;;;;;7.35;4.50;;;;;;;20.95;100.00;98808.69;5083191;28;20070;-85
2023/09/12 03:51:01;;;;;;;6.95;4.93;;;;;;;21.20;100.00;98801.69;5085777;28;20062;-85
2023/09/12 03:53:47;;;;;;;7.95;5.70;;;;;;;21.21;100.00;98808.63;5105798;28;20079;-85
2023/09/12 03:56:31;;;;;;;9.10;6.80;;;;;;;20.90;100.00;98814.03;5086714;28;20100;-85
2023/09/12 03:59:15;;;;;;;9.25;6.40;;;;;;;21.03;100.00;98809.19;5088902;28;20049;-83
2023/09/12 04:02:02;;;;;;;10.52;7.68;;;;;;;20.74;100.00;98804.41;5116944;27;20062;-83
2023/09/12 04:04:47;;;;;;;13.10;8.45;;;;;;;20.87;100.00;98814.56;5088197;28;20042;-83
2023/09/12 04:07:31;;;;;;;16.65;8.70;;;;;;;20.67;100.00;98800.16;5082493;28;20035;-86
2023/09/12 04:10:15;;;;;;;12.07;8.68;;;;;;;20.23;100.00;98816.63;5100440;28;20035;-83
2023/09/12 04:12:58;;;;;;;;;;;;;;;20.73;100.00;98824.13;5105145;28;20042;-82
2023/09/12 04:15:42;;;;;;;13.88;9.32;;;;;;;20.39;100.00;98814.78;5104064;28;19938;-83
2023/09/12 04:18:26;;;;;;;;;;;;;;;20.26;100.00;98816.13;5090009;28;20051;-81
2023/09/12 04:21:10;;;;;;;14.60;9.23;;;;;;;19.90;100.00;98816.00;5089238;28;19918;-82
2023/09/12 04:23:54;;;;;;;15.45;9.77;;;;;;;20.33;100.00;98813.16;5097027;28;20138;-82
2023/09/12 04:26:38;;;;;;;15.82;9.90;;;;;;;19.93;100.00;98812.81;5103290;28;20104;-82
2023/09/12 04:29:22;;;;;;;14.52;9.75;;;;;;;20.20;100.00;98807.31;5094695;28;20101;-84
2023/09/12 04:32:06;;;;;;;17.70;9.68;;;;;;;20.22;100.00;98793.69;5090795;28;20539;-82
2023/09/12 04:34:50;;;;;;;14.77;10.20;;;;;;;20.12;100.00;98794.47;5085773;28;20199;-82
2023/09/12 04:37:35;;;;;;;15.50;9.93;;;;;;;20.30;100.00;98795.84;5099253;28;20128;-83
2023/09/12 04:40:19;;;;;;;14.70;9.73;;;;;;;20.27;100.00;98799.06;5082136;28;20113;-86
2023/09/12 04:43:03;;;;;;;15.32;9.23;;;;;;;20.12;100.00;98805.94;5086958;28;20088;-82
2023/09/12 04:45:48;;;;;;;15.65;9.50;;;;;;;19.94;100.00;98798.44;5099775;28;20042;-82
2023/09/12 04:48:32;;;;;;;19.50;8.88;;;;;;;20.36;100.00;98807.34;5100975;28;20046;-81
2023/09/12 04:51:16;;;;;;;12.63;8.27;;;;;;;20.34;100.00;98806.75;5081650;28;20508;-82
2023/09/12 04:54:00;;;;;;;14.05;7.90;;;;;;;20.62;100.00;98815.34;5083193;28;20050;-82
2023/09/12 04:56:44;;;;;;;14.70;8.27;;;;;;;20.21;100.00;98810.75;5086557;28;20393;-83
2023/09/12 04:59:28;;;;;;;10.10;6.97;;;;;;;19.96;100.00;98817.63;5083064;28;20031;-83
2023/09/12 05:02:12;;;;;;;12.18;7.22;;;;;;;20.02;100.00;98816.56;5095835;28;20362;-82
2023/09/12 05:04:56;;;;;;;10.63;6.35;;;;;;;19.70;100.00;98815.63;5079560;28;20115;-83
2023/09/12 05:07:40;;;;;;;7.60;5.78;;;;;;;19.81;100.00;98824.47;5085392;28;20042;-83
2023/09/12 05:10:24;;;;;;;12.30;6.20;;;;;;;19.78;100.00;98822.31;5095022;28;20104;-84
2023/09/12 05:13:08;;;;;;;6.95;4.60;;;;;;;19.53;100.00;98817.69;5100862;28;20170;-84
2023/09/12 05:15:52;;;;;;;7.05;4.18;;;;;;;19.49;100.00;98817.44;5078658;28;20035;-83
2023/09/12 05:18:36;;;;;;;7.90;4.00;;;;;;;20.00;100.00;98816.03;5084578;28;20492;-83
2023/09/12 05:21:19;;;;;;;6.22;4.13;;;;;;;20.17;100.00;98823.81;5083393;28;20039;-83
2023/09/12 05:24:04;;;;;;;5.10;4.05;;;;;;;19.19;100.00;98816.19;5087950;28;20089;-84
2023/09/12 05:26:49;;;;;;;6.07;4.00;;;;;;;20.30;100.00;98814.50;5088454;28;20084;-84
2023/09/12 05:29:33;;;;;;;5.03;3.63;;;;;;;20.28;100.00;98808.66;5083397;28;20086;-83
2023/09/12 05:32:17;;;;;;;3.78;3.38;;;;;;;20.18;100.00;98819.28;5101473;28;20112;-84
2023/09/12 05:35:01;;;;;;;4.97;3.53;;;;;;;19.96;100.00;98812.28;5096050;28;20043;-82
2023/09/12 05:37:46;;;;;;;4.15;3.25;;;;;;;20.29;100.00;98826.25;5083862;28;20061;-82
2023/09/12 05:40:30;;;;;;;4.82;3.72;;;;;;;20.30;100.00;98822.50;5077504;28;20086;-84
2023/09/12 05:43:14;;;;;;;5.57;4.25;;;;;;;20.55;100.00;98823.59;5085906;28;20128;-82
2023/09/12 05:45:58;;;;;;;4.57;3.72;;;;;;;20.34;100.00;98828.91;5082953;28;20088;-84
2023/09/12 05:48:42;;;;;;;4.43;3.47;;;;;;;20.19;100.00;98829.69;5078761;28;20097;-84
2023/09/12 05:51:26;;;;;;;4.22;3.30;;;;;;;20.29;100.00;98831.56;5096235;28;20066;-85
2023/09/12 05:54:13;;;;;;;8.20;3.65;;;;;;;19.81;100.00;98837.78;5094460;28;20501;-87
2023/09/12 05:56:57;;;;;;;5.03;3.33;;;;;;;19.78;100.00;98837.53;5099506;28;20092;-84
2023/09/12 05:59:41;;;;;;;9.73;3.22;;;;;;;20.01;100.00;98846.16;5098172;28;20458;-84
2023/09/12 06:02:26;;;;;;;3.30;2.60;;;;;;;20.01;100.00;98838.94;5079627;28;20113;-86
2023/09/12 06:05:10;;;;;;;2.50;2.10;;;;;;;20.33;100.00;98853.97;5096635;28;20046;-86
2023/09/12 06:07:54;;;;;;;;;;;;;;;19.92;100.00;98857.28;5079700;28;20078;-88
2023/09/12 06:10:38;;;;;;;3.65;2.50;;;;;;;20.56;100.00;98851.84;5079655;28;19982;-88
2023/09/12 06:13:22;;;;;;;2.65;2.15;;;;;;;20.48;100.00;98853.19;5078927;28;20046;-88
2023/09/12 06:16:12;;;;;;;2.95;2.03;;;;;;;20.48;100.00;98865.72;5079299;28;20504;-88
2023/09/12 06:18:56;;;;;;;2.33;1.90;;;;;;;20.29;100.00;98858.22;5107005;28;20043;-89
2023/09/12 06:21:41;;;;;;;4.47;1.88;;;;;;;20.07;100.00;98853.09;5084522;28;20089;-86
2023/09/12 06:24:27;;;;;;;2.80;1.70;;;;;;;19.68;100.00;98859.59;5101627;28;20046;-87
2023/09/12 06:27:18;;;;;;;1.70;1.58;;;;;;;20.07;100.00;98856.56;5099095;28;20093;-88
2023/09/12 06:30:03;;;;;;;5.00;1.90;;;;;;;20.20;100.00;98859.78;5095494;28;20042;-86
2023/09/12 06:32:47;;;;;;;1.88;1.40;;;;;;;19.47;100.00;98875.44;5091553;28;20035;-85
2023/09/12 06:35:32;;;;;;;1.52;1.42;;;;;;;19.89;100.00;98875.66;5080979;28;20500;-87
2023/09/12 06:38:16;;;;;;;1.70;1.50;;;;;;;19.53;100.00;98870.94;5093352;28;20097;-84
2023/09/12 06:41:00;;;;;;;1.58;1.48;;;;;;;19.83;100.00;98877.47;5088849;28;20057;-87
2023/09/12 06:43:45;;;;;;;1.92;1.73;;;;;;;19.93;100.00;98866.09;5079716;28;20559;-88
2023/09/12 06:46:29;;;;;;;4.50;2.10;;;;;;;19.78;100.00;98883.59;5089692;28;20142;-87
2023/09/12 06:49:13;;;;;;;3.90;2.50;;;;;;;20.05;100.00;98874.69;5085081;28;20047;-88
2023/09/12 06:51:57;;;;;;;2.60;2.20;;;;;;;19.89;100.00;98883.63;5084408;28;20042;-85
2023/09/12 06:54:41;;;;;;;3.65;2.30;;;;;;;20.09;100.00;98881.09;5101207;28;20035;-88
2023/09/12 06:57:25;;;;;;;3.15;2.83;;;;;;;20.12;100.00;98879.75;5091801;28;20078;-87
2023/09/12 07:00:10;;;;;;;6.35;2.70;;;;;;;19.79;100.00;98884.41;5104288;28;20043;-87
2023/09/12 07:02:54;;;;;;;4.03;2.53;;;;;;;20.04;100.00;98889.03;5090606;28;20059;-90
2023/09/12 07:05:39;;;;;;;3.70;2.72;;;;;;;19.84;100.00;98895.84;5092933;28;20137;-88
2023/09/12 07:08:24;;;;;;;2.53;2.22;;;;;;;19.98;100.00;98895.41;5105972;28;20362;-86
2023/09/12 07:11:08;;;;;;;2.67;2.47;;;;;;;19.98;100.00;98885.56;5089299;28;20042;-88
2023/09/12 07:13:52;;;;;;;3.08;2.78;;;;;;;20.31;100.00;98892.59;5099630;28;20069;-86
2023/09/12 07:16:36;;;;;;;8.00;2.90;;;;;;;20.10;100.00;98897.84;5084933;28;20063;-87
2023/09/12 07:19:21;;;;;;;2.83;2.15;;;;;;;20.02;100.00;98909.03;5104366;28;20588;-87
2023/09/12 07:22:04;;;;;;;3.78;1.92;;;;;;;19.69;100.00;98911.78;5102763;28;20051;-87
2023/09/12 07:24:50;;;;;;;3.58;2.40;;;;;;;20.01;100.00;98899.44;5087599;28;20079;-89
2023/09/12 07:27:34;;;;;;;2.47;2.20;;;;;;;19.82;100.00;98918.50;5085286;28;20046;-84
2023/09/12 07:30:18;;;;;;;2.63;2.20;;;;;;;19.73;100.00;98912.84;5094068;28;20046;-84
2023/09/12 07:33:06;;;;;;;5.32;2.33;;;;;;;20.20;100.00;98913.06;5084995;28;20161;-85
2023/09/12 07:35:54;;;;;;;3.03;2.30;;;;;;;20.65;100.00;98910.81;5101269;28;20097;-83
2023/09/12 07:38:38;;;;;;;4.80;2.15;;;;;;;20.54;100.00;98912.66;5096876;28;20443;-82
2023/09/12 07:41:22;;;;;;;3.63;2.80;;;;;;;20.31;100.00;98913.91;5101007;28;20073;-84
2023/09/12 07:44:07;;;;;;;4.45;2.30;;;;;;;20.17;100.00;98914.41;5095851;28;20441;-83
2023/09/12 07:46:51;;;;;;;2.50;2.22;;;;;;;20.37;100.00;98910.22;5101158;28;20043;-83
2023/09/12 07:49:35;;;;;;;2.58;2.25;;;;;;;20.57;100.00;98914.00;5100476;28;20169;-83
2023/09/12 07:52:19;;;;;;;2.83;2.55;;;;;;;20.13;100.00;98908.00;5099178;28;20420;-83
2023/09/12 07:55:04;;;;;;;12.07;3.40;;;;;;;20.68;100.00;98908.41;5102484;28;20782;-83
2023/09/12 07:57:48;;;;;;;3.17;2.40;;;;;;;20.49;100.00;98913.44;5088549;28;20093;-83
2023/09/12 08:00:31;;;;;;;2.45;2.22;;;;;;;20.43;100.00;98919.00;5100398;28;20099;-83
2023/09/12 08:03:17;;;;;;;2.90;2.58;;;;;;;20.79;100.00;98919.09;5099018;28;20500;-82
2023/09/12 08:06:02;;;;;;;5.07;2.53;;;;;;;20.68;100.00;98919.09;5089309;28;20039;-81
2023/09/12 08:08:46;;;;;;;3.67;3.10;;;;;;;20.55;100.00;98924.91;5103472;28;20428;-82
2023/09/12 08:11:30;;;;;;;2.50;2.30;;;;;;;20.15;100.00;98923.72;5099172;28;20039;-83
2023/09/12 08:14:14;;;;;;;2.63;2.28;;;;;;;20.04;100.00;98928.22;5102122;28;20497;-82
2023/09/12 08:16:58;;;;;;;5.25;2.40;;;;;;;20.02;100.00;98941.00;5089158;28;20042;-82
2023/09/12 08:19:43;;;;;;;2.35;2.15;;;;;;;20.39;100.00;98938.19;5098963;28;20099;-83
2023/09/12 08:22:27;;;;;;;2.65;2.08;;;;;;;20.74;100.00;98940.41;5100612;28;20088;-83
2023/09/12 08:25:12;;;;;;;3.15;1.70;;;;;;;20.28;100.00;98931.25;5102009;28;20035;-83
2023/09/12 08:27:56;;;;;;;3.00;2.00;;;;;;;21.09;100.00;98930.88;5081552;28;20051;-82
2023/09/12 08:30:40;;;;;;;13.98;2.75;;;;;;;20.98;100.00;98938.88;5080729;28;20051;-82
2023/09/12 08:33:24;;;;;;;3.38;2.33;;;;;;;20.95;100.00;98936.75;5084751;28;20050;-83
2023/09/12 08:36:08;;;;;;;4.07;2.58;;;;;;;20.65;100.00;98940.94;5099248;28;20091;-83
2023/09/12 08:38:52;;;;;;;2.60;2.40;;;;;;;21.35;100.00;98946.88;5083119;28;20047;-82
2023/09/12 08:41:36;;;;;;;3.30;3.00;;;;;;;21.41;100.00;98951.13;5095192;28;20085;-82
2023/09/12 08:44:21;;;;;;;3.30;3.00;;;;;;;21.09;100.00;98946.91;5095351;28;20043;-82
2023/09/12 08:47:09;;;;;;;2.88;2.58;;;;;;;20.11;100.00;98950.09;5098074;28;20050;-82
2023/09/12 08:49:54;;;;;;;3.78;1.83;;;;;;;20.77;100.00;98963.88;5101645;28;20074;-82
2023/09/12 08:52:40;;;;;;;6.18;2.63;;;;;;;20.83;100.00;98949.53;5082552;28;20096;-81
2023/09/12 08:55:24;;;;;;;2.20;2.00;;;;;;;20.76;100.00;98957.78;5095911;28;20130;-82
2023/09/12 08:58:08;;;;;;;2.97;2.67;;;;;;;20.69;100.00;98963.34;5082999;28;20107;-83
2023/09/12 09:00:52;;;;;;;2.08;1.88;;;;;;;21.30;100.00;98962.91;5097535;28;20069;-83
2023/09/12 09:03:38;;;;;;;2.65;2.28;;;;;;;21.53;100.00;98966.91;5102992;28;20046;-83
2023/09/12 09:06:23;;;;;;;2.80;2.60;;;;;;;21.14;100.00;98965.56;5081586;28;20038;-82
2023/09/12 09:09:08;;;;;;;3.63;2.50;;;;;;;20.57;100.00;98976.09;5102164;28;20046;-82
2023/09/12 09:11:52;;;;;;;4.63;2.53;;;;;;;20.57;100.00;98970.78;5098664;28;20177;-84
2023/09/12 09:14:36;;;;;;;2.97;2.60;;;;;;;20.87;100.00;98977.28;5100364;28;20173;-82
2023/09/12 09:17:20;;;;;;;4.28;3.20;;;;;;;21.14;100.00;98973.56;5098436;28;20079;-82
2023/09/12 09:20:09;;;;;;;3.33;2.97;;;;;;;20.88;100.00;98975.41;5085159;28;20209;-83
2023/09/12 09:23:08;;;;;;;3.45;3.15;;;;;;;21.25;100.00;98969.84;5100369;28;20038;-82
2023/09/12 09:25:56;;;;;;;4.47;3.97;;;;;;;21.36;100.00;98976.00;5108507;28;20127;-82
2023/09/12 09:28:40;;;;;;;5.25;4.03;;;;;;;21.04;100.00;98978.91;5098221;28;20042;-83
2023/09/12 09:31:23;;;;;;;4.00;3.60;;;;;;;20.93;100.00;98986.09;5098189;28;20063;-82
2023/09/12 09:34:13;;;;;;;3.92;3.50;;;;;;;20.69;100.00;98984.69;5082429;28;20419;-81
2023/09/12 09:36:57;;;;;;;4.95;4.38;;;;;;;21.21;100.00;98981.31;5100805;28;20058;-82
2023/09/12 09:39:41;;;;;;;5.60;4.68;;;;;;;21.49;100.00;98987.19;5084947;28;20093;-83
2023/09/12 09:42:28;;;;;;;6.65;4.05;;;;;;;21.46;100.00;98983.19;5083027;28;20092;-82
2023/09/12 09:45:13;;;;;;;5.35;4.35;;;;;;;21.05;100.00;98985.84;5099804;28;20070;-82
2023/09/12 09:47:59;;;;;;;5.07;4.57;;;;;;;21.08;100.00;98988.78;5095348;28;20070;-85
2023/09/12 09:50:43;;;;;;;5.50;4.75;;;;;;;20.77;100.00;98995.91;5100769;28;20092;-82
2023/09/12 09:53:28;;;;;;;4.93;4.20;;;;;;;20.68;100.00;98992.94;5101527;28;20043;-82
2023/09/12 09:56:14;;;;;;;8.10;5.07;;;;;;;19.80;100.00;98992.53;5084882;28;20088;-84
2023/09/12 09:58:58;;;;;;;5.78;4.63;;;;;;;20.55;100.00;98995.06;5100102;28;20051;-81
2023/09/12 10:01:45;;;;;;;6.45;5.78;;;;;;;20.22;100.00;98996.22;5097962;28;20425;-81
2023/09/12 10:04:31;;;;;;;10.07;5.82;;;;;;;20.87;100.00;98998.63;5100485;28;20461;-81
2023/09/12 10:07:16;;;;;;;9.20;6.68;;;;;;;20.81;100.00;98987.16;5102506;28;20066;-81
2023/09/12 10:10:03;;;;;;;7.10;6.07;;;;;;;21.52;100.00;98990.13;5086468;28;20046;-84
2023/09/12 10:12:56;;;;;;;6.63;5.18;;;;;;;20.35;100.00;98990.44;5102125;28;20406;-82
2023/09/12 10:15:44;;;;;;;5.57;4.80;;;;;;;20.81;100.00;98989.00;5087478;28;20397;-84
2023/09/12 10:18:32;;;;;;;4.43;4.03;;;;;;;20.32;100.00;99003.47;5100872;28;20109;-83
2023/09/12 10:21:25;;;;;;;4.70;4.25;;;;;;;21.00;100.00;99004.50;5104998;28;20034;-84
2023/09/12 10:24:09;;;;;;;7.65;4.00;;;;;;;20.35;100.00;99005.63;5088144;28;20132;-83
2023/09/12 10:26:55;;;;;;;7.00;3.78;;;;;;;21.29;100.00;99004.81;5088044;28;20035;-83
2023/09/12 10:29:39;;;;;;;5.68;4.75;;;;;;;21.32;100.00;99001.63;5104280;28;20095;-83
2023/09/12 10:32:26;;;;;;;7.05;5.60;;;;;;;20.92;100.00;99013.81;5100132;28;20089;-84
2023/09/12 10:35:11;;;;;;;7.45;6.38;;;;;;;21.29;100.00;99010.16;5103615;28;20041;-84
2023/09/12 10:38:06;;;;;;;8.30;5.93;;;;;;;20.69;100.00;99011.34;5106889;28;20450;-84
2023/09/12 10:40:56;;;;;;;6.70;5.40;;;;;;;20.77;100.00;99012.72;5084610;28;20070;-84
2023/09/12 10:43:41;;;;;;;8.10;5.50;;;;;;;20.80;100.00;99011.41;5103189;28;20040;-83
2023/09/12 10:46:25;;;;;;;8.80;6.35;;;;;;;21.20;100.00;99015.22;5086232;28;20042;-83
2023/09/12 10:49:11;;;;;;;9.35;6.00;;;;;;;20.28;100.00;99016.53;5105309;28;20550;-84
2023/09/12 10:51:57;;;;;;;9.60;6.50;;;;;;;20.89;100.00;99020.50;5104000;28;20122;-84
2023/09/12 10:54:42;;;;;;;8.80;6.65;;;;;;;20.34;100.00;99017.34;5105558;28;20616;-84
2023/09/12 10:57:27;;;;;;;7.07;6.18;;;;;;;20.54;100.00;99021.97;5100970;28;20043;-83
2023/09/12 11:00:12;;;;;;;9.07;6.85;;;;;;;21.23;100.00;99014.69;5102988;28;20046;-84
2023/09/12 11:02:56;;;;;;;6.45;5.53;;;;;;;21.32;100.00;99016.84;5102009;28;20085;-84
2023/09/12 11:05:52;;;;;;;8.35;5.60;;;;;;;21.25;100.00;99015.25;5104002;28;20059;-84
2023/09/12 11:08:38;;;;;;;7.45;4.05;;;;;;;21.22;100.00;99023.78;5078623;28;20085;-84
2023/09/12 11:11:23;;;;;;;5.50;4.22;;;;;;;21.13;100.00;99017.34;5102992;28;20046;-83
2023/09/12 11:14:08;;;;;;;3.83;3.10;;;;;;;20.83;100.00;99026.88;5097846;28;20165;-84
2023/09/12 11:17:07;;;;;;;5.78;3.33;;;;;;;21.11;100.00;99027.50;5106055;28;20074;-82
2023/09/12 11:19:52;;;;;;;3.78;3.22;;;;;;;20.64;100.00;99038.03;5101846;28;20558;-83
2023/09/12 11:22:42;;;;;;;6.10;3.63;;;;;;;20.71;100.00;99031.63;5101552;28;20104;-84
2023/09/12 11:25:26;;;;;;;4.05;3.08;;;;;;;20.48;100.00;99037.13;5103166;28;20045;-83
2023/09/12 11:28:11;;;;;;;4.80;3.15;;;;;;;21.06;100.00;99035.50;5105441;28;20043;-84
2023/09/12 11:30:59;;;;;;;5.22;3.50;;;;;;;21.05;100.00;99033.88;5105644;28;20564;-83
2023/09/12 11:33:44;;;;;;;8.68;4.35;;;;;;;20.61;100.00;99040.41;5083694;28;20039;-83
2023/09/12 11:36:28;;;;;;;5.57;4.38;;;;;;;21.28;100.00;99037.13;5103491;28;20094;-83
2023/09/12 11:39:28;;;;;;;6.95;4.65;;;;;;;20.43;100.00;99036.31;5087507;28;20049;-83
2023/09/12 11:42:13;;;;;;;5.82;4.50;;;;;;;21.02;100.00;99035.22;5098124;28;20043;-84
2023/09/12 11:44:58;;;;;;;5.32;4.45;;;;;;;21.09;100.00;99041.09;5100659;28;20043;-83
2023/09/12 11:47:43;;;;;;;6.78;4.63;;;;;;;20.89;100.00;99036.53;5105067;28;20500;-83
2023/09/12 11:50:35;;;;;;;5.00;4.50;;;;;;;21.33;100.00;99029.94;5085026;28;20054;-83
2023/09/12 11:53:22;;;;;;;4.50;4.10;;;;;;;20.83;100.00;99034.88;5098102;28;20511;-83
2023/09/12 11:56:07;;;;;;;7.47;4.43;;;;;;;20.75;100.00;99038.84;5098417;28;20039;-83
2023/09/12 11:58:51;;;;;;;4.30;3.63;;;;;;;20.73;100.00;99042.84;5096560;28;20070;-83
2023/09/12 12:01:35;;;;;;;5.28;3.42;;;;;;;21.06;100.00;99043.50;5097499;28;20154;-83
2023/09/12 12:04:27;;;;;;;3.72;3.40;;;;;;;21.11;100.00;99035.50;5087648;28;20043;-83
2023/09/12 12:07:12;;;;;;;3.83;3.53;;;;;;;21.59;100.00;99037.13;5093897;28;20607;-83
2023/09/12 12:09:56;;;;;;;4.95;4.20;;;;;;;20.59;100.00;99029.97;5098233;28;20133;-83
2023/09/12 12:12:43;;;;;;;8.50;4.32;;;;;;;21.25;100.00;99033.91;5079083;28;20074;-83
2023/09/12 12:15:27;;;;;;;5.70;4.57;;;;;;;21.72;100.00;99031.28;5095688;28;20081;-84
2023/09/12 12:18:12;;;;;;;5.85;4.93;;;;;;;21.76;100.00;99040.34;5085838;28;20062;-84
2023/09/12 12:20:56;;;;;;;5.03;3.97;;;;;;;20.66;100.00;99046.56;5078957;28;20047;-83
2023/09/12 12:23:40;;;;;;;4.80;4.18;;;;;;;20.09;100.00;99030.28;5101077;28;20067;-84
2023/09/12 12:26:25;;;;;;;6.70;4.95;;;;;;;21.28;100.00;99029.13;5083449;28;20090;-83
2023/09/12 12:29:11;;;;;;;6.80;5.43;;;;;;;21.43;100.00;99034.47;5104763;28;20096;-83
2023/09/12 12:32:02;;;;;;;5.72;5.13;;;;;;;21.87;100.00;99043.81;5083997;28;20054;-83
2023/09/12 12:34:50;;;;;;;6.30;5.03;;;;;;;22.18;100.00;99042.94;5099851;28;20047;-83
2023/09/12 12:37:35;;;;;;;8.65;5.38;;;;;;;20.83;100.00;99048.22;5101640;28;20105;-83
2023/09/12 12:40:20;;;;;;;6.47;5.70;;;;;;;22.16;100.00;99047.75;5091250;28;20050;-83
2023/09/12 12:43:04;;;;;;;9.10;6.68;;;;;;;21.52;100.00;99043.53;5097262;28;20039;-86
2023/09/12 12:45:55;;;;;;;7.88;6.57;;;;;;;22.08;100.00;99041.91;5098481;28;20046;-88